Terminal Aerodrome Forecast
Issued by NWS Topeka, KS

Home | Current Version | Previous Version | Text Only | Print | Product List | Glossary Off
Versions: 1 2 3 4 5 6 7 8 9 10 11 12 13 14 15 16 17 18 19 20 21 22 23 24 25 26 27

000
FTUS43 KTOP 031725
TAFTOP
TAF
KTOP 031725Z 0318/0418 VRB03KT P6SM OVC050
     FM032200 11006KT P6SM VCSH OVC040
     FM040000 09004KT 6SM -SHRA BR OVC040
      TEMPO 0404/0407 2SM -SHRA BR OVC015
     FM040700 17004KT 1 1/2SM -SHRA BR OVC008
     FM041300 21004KT 6SM BR OVC009
     FM041700 28007KT P6SM SCT050=

USA.gov is the U.S. government's official web portal to all federal, state and local government web resources and services.